createdAt,value
2018-11-02T00:01:15.514Z,12.60
2018-11-02T00:03:44.212Z,12.60
2018-11-02T00:06:12.938Z,12.60
2018-11-02T00:08:42.287Z,12.60
2018-11-02T00:11:11.399Z,12.50
2018-11-02T00:13:40.270Z,12.50
2018-11-02T00:16:08.873Z,12.40
2018-11-02T00:18:37.524Z,12.50
2018-11-02T00:21:06.200Z,12.50
2018-11-02T00:23:35.606Z,12.50
2018-11-02T00:26:04.269Z,12.40
2018-11-02T00:28:32.955Z,12.40
2018-11-02T00:31:01.787Z,12.40
2018-11-02T00:33:30.492Z,12.40
2018-11-02T00:35:59.121Z,12.40
2018-11-02T00:38:27.943Z,12.30
2018-11-02T00:40:56.558Z,12.30
2018-11-02T00:43:25.242Z,12.40
2018-11-02T00:45:53.965Z,12.40
2018-11-02T00:48:22.890Z,12.50
2018-11-02T00:50:52.176Z,12.50
2018-11-02T00:53:21.241Z,12.50
2018-11-02T00:55:50.069Z,12.50
2018-11-02T00:58:18.769Z,12.50
2018-11-02T01:00:47.471Z,12.50
2018-11-02T01:03:16.125Z,12.40
2018-11-02T01:05:44.768Z,12.30
2018-11-02T01:08:13.473Z,12.30
2018-11-02T01:10:42.401Z,12.30
2018-11-02T01:13:11.130Z,12.30
2018-11-02T01:15:39.845Z,12.30
2018-11-02T01:18:08.604Z,12.30
2018-11-02T01:20:37.290Z,12.30
2018-11-02T01:23:06.369Z,12.30
2018-11-02T01:25:35.166Z,12.30
2018-11-02T01:28:04.050Z,12.30
2018-11-02T01:30:32.798Z,12.30
2018-11-02T01:33:01.866Z,12.30
2018-11-02T01:35:30.632Z,12.40
2018-11-02T01:37:59.571Z,12.30
2018-11-02T01:40:28.279Z,12.30
2018-11-02T01:42:57.001Z,12.30
2018-11-02T01:45:25.780Z,12.20
2018-11-02T01:47:54.409Z,12.20
2018-11-02T01:50:23.075Z,12.20
2018-11-02T01:52:51.710Z,12.20
2018-11-02T01:55:20.406Z,12.20
2018-11-02T01:57:49.091Z,12.20
2018-11-02T02:00:17.774Z,12.20
2018-11-02T02:02:46.526Z,12.20
2018-11-02T02:05:15.365Z,12.20
2018-11-02T02:07:44.191Z,12.20
2018-11-02T02:10:13.404Z,12.10
2018-11-02T02:12:42.009Z,12.10
2018-11-02T02:15:11.376Z,12.10
2018-11-02T02:17:40.035Z,12.10
2018-11-02T02:20:09.210Z,12.10
2018-11-02T02:22:37.950Z,12.10
2018-11-02T02:25:07.316Z,12.10
2018-11-02T02:27:36.954Z,12.00
2018-11-02T02:30:07.892Z,12.10
2018-11-02T02:32:36.688Z,12.10
2018-11-02T02:35:05.777Z,12.10
2018-11-02T02:37:34.610Z,12.10
2018-11-02T02:40:03.341Z,12.10
2018-11-02T02:42:32.247Z,12.20
2018-11-02T02:45:00.967Z,12.20
2018-11-02T02:47:30.369Z,12.20
2018-11-02T02:49:59.024Z,12.20
2018-11-02T02:52:28.166Z,12.20
2018-11-02T02:54:57.073Z,12.10
2018-11-02T02:57:25.637Z,12.10
2018-11-02T02:59:54.592Z,12.10
2018-11-02T03:02:23.215Z,12.00
2018-11-02T03:04:51.938Z,11.90
2018-11-02T03:07:20.640Z,11.70
2018-11-02T03:09:49.307Z,11.60
2018-11-02T03:12:18.015Z,11.50
2018-11-02T03:14:46.795Z,11.40
2018-11-02T03:17:15.749Z,11.40
2018-11-02T03:19:44.474Z,11.30
2018-11-02T03:22:13.172Z,11.30
2018-11-02T03:24:42.109Z,11.30
2018-11-02T03:27:10.887Z,11.20
2018-11-02T03:29:39.576Z,11.20
2018-11-02T03:32:08.912Z,11.20
2018-11-02T03:34:37.594Z,11.30
2018-11-02T03:37:06.630Z,11.30
2018-11-02T03:39:35.222Z,11.30
2018-11-02T03:42:03.842Z,11.30
2018-11-02T03:44:32.490Z,11.30
2018-11-02T03:47:01.269Z,11.30
2018-11-02T03:49:29.904Z,11.40
2018-11-02T03:51:58.669Z,11.40
2018-11-02T03:54:27.366Z,11.40
2018-11-02T03:56:56.060Z,11.40
2018-11-02T03:59:24.620Z,11.30
2018-11-02T04:01:53.377Z,11.30
2018-11-02T04:04:22.002Z,11.30
2018-11-02T04:06:50.650Z,11.30
2018-11-02T04:09:19.310Z,11.30
2018-11-02T04:11:47.928Z,11.30
2018-11-02T04:14:16.905Z,11.20
2018-11-02T04:16:45.641Z,11.20
2018-11-02T04:19:14.291Z,11.20
2018-11-02T04:21:47.200Z,11.20
2018-11-02T04:24:15.867Z,11.20
2018-11-02T04:26:44.631Z,11.10
2018-11-02T04:29:14.476Z,11.00
2018-11-02T04:31:44.084Z,11.00
2018-11-02T04:34:13.738Z,11.00
2018-11-02T04:36:42.439Z,10.90
2018-11-02T04:39:12.747Z,10.90
2018-11-02T04:41:41.343Z,10.80
2018-11-02T04:44:11.500Z,10.80
2018-11-02T04:46:40.644Z,10.70
2018-11-02T04:49:10.019Z,10.70
2018-11-02T04:51:39.051Z,10.60
2018-11-02T04:54:08.427Z,10.60
2018-11-02T04:56:37.146Z,10.50
2018-11-02T04:59:05.892Z,10.40
2018-11-02T05:01:34.487Z,10.30
2018-11-02T05:04:03.121Z,10.20
2018-11-02T05:06:31.813Z,10.10
2018-11-02T05:09:00.537Z,10.00
2018-11-02T05:11:29.273Z,10.00
2018-11-02T05:13:57.864Z,9.90
2018-11-02T05:16:26.471Z,9.90
2018-11-02T05:18:55.098Z,9.80
2018-11-02T05:21:23.831Z,9.70
2018-11-02T05:23:53.453Z,9.70
2018-11-02T05:26:22.076Z,9.70
2018-11-02T05:28:50.705Z,9.60
2018-11-02T05:31:19.472Z,9.60
2018-11-02T05:33:48.496Z,9.50
2018-11-02T05:36:17.238Z,9.40
2018-11-02T05:38:45.901Z,9.40
2018-11-02T05:41:16.124Z,9.40
2018-11-02T05:43:44.849Z,9.40
2018-11-02T05:46:13.826Z,9.30
2018-11-02T05:48:42.588Z,9.30
2018-11-02T05:51:11.295Z,9.30
2018-11-02T05:53:39.936Z,9.30
2018-11-02T05:56:08.614Z,9.30
2018-11-02T05:58:37.271Z,9.30
2018-11-02T06:01:06.389Z,9.30
2018-11-02T06:03:34.994Z,9.30
2018-11-02T06:06:04.327Z,9.30
2018-11-02T06:08:33.472Z,9.20
2018-11-02T06:11:02.508Z,9.30
2018-11-02T06:13:31.218Z,9.30
2018-11-02T06:16:00.573Z,9.30
2018-11-02T06:18:29.195Z,9.30
2018-11-02T06:20:57.949Z,9.30
2018-11-02T06:23:26.541Z,9.30
2018-11-02T06:25:55.176Z,9.30
2018-11-02T06:28:23.973Z,9.20
2018-11-02T06:30:52.744Z,9.20
2018-11-02T06:33:21.435Z,9.20
2018-11-02T06:35:50.104Z,9.20
2018-11-02T06:38:18.802Z,9.20
2018-11-02T06:40:47.431Z,9.10
2018-11-02T06:43:16.350Z,9.20
2018-11-02T06:45:45.079Z,9.20
2018-11-02T06:48:13.764Z,9.10
2018-11-02T06:50:42.402Z,9.10
2018-11-02T06:53:11.075Z,9.10
2018-11-02T06:55:39.822Z,9.10
2018-11-02T06:58:08.523Z,9.00
2018-11-02T07:00:37.221Z,9.00
2018-11-02T07:03:05.979Z,9.00
2018-11-02T07:05:34.867Z,9.00
2018-11-02T07:08:08.978Z,9.10
2018-11-02T07:10:37.806Z,9.10
2018-11-02T07:13:06.632Z,9.10
2018-11-02T07:15:35.427Z,9.10
2018-11-02T07:18:04.636Z,9.10
2018-11-02T07:20:33.391Z,9.20
2018-11-02T07:23:02.009Z,9.30
2018-11-02T07:25:30.628Z,9.30
2018-11-02T07:27:59.406Z,9.40
2018-11-02T07:30:28.129Z,9.40
2018-11-02T07:32:56.885Z,9.40
2018-11-02T07:35:25.550Z,9.50
2018-11-02T07:37:54.113Z,9.60
2018-11-02T07:40:25.968Z,9.70
2018-11-02T07:42:54.936Z,9.80
2018-11-02T07:45:24.211Z,10.00
2018-11-02T07:47:52.946Z,10.00
2018-11-02T07:50:21.747Z,10.00
2018-11-02T07:52:50.638Z,10.00
2018-11-02T07:55:19.320Z,10.00
2018-11-02T07:57:47.993Z,10.00
2018-11-02T08:00:17.699Z,10.00
2018-11-02T08:02:47.209Z,10.10
2018-11-02T08:05:16.443Z,10.20
2018-11-02T08:07:45.099Z,10.30
2018-11-02T08:10:13.959Z,10.20
2018-11-02T08:12:42.592Z,10.10
2018-11-02T08:15:12.407Z,10.10
2018-11-02T08:17:42.004Z,10.10
2018-11-02T08:20:12.113Z,10.10
2018-11-02T08:22:41.103Z,10.10
2018-11-02T08:25:10.641Z,10.10
2018-11-02T08:27:39.798Z,10.30
2018-11-02T08:30:09.485Z,10.50
2018-11-02T08:32:39.421Z,10.80
2018-11-02T08:35:10.159Z,11.00
2018-11-02T08:37:39.055Z,11.00
2018-11-02T08:40:08.980Z,10.80
2018-11-02T08:42:37.785Z,10.70
2018-11-02T08:45:07.026Z,10.60
2018-11-02T08:47:35.748Z,10.60
2018-11-02T08:50:04.499Z,10.60
2018-11-02T08:52:33.950Z,10.60
2018-11-02T08:55:02.726Z,10.70
2018-11-02T08:57:31.475Z,10.80
2018-11-02T09:00:00.254Z,10.70
2018-11-02T09:02:28.944Z,10.90
2018-11-02T09:04:57.743Z,11.00
2018-11-02T09:07:26.558Z,11.00
2018-11-02T09:09:55.190Z,11.00
2018-11-02T09:12:23.866Z,11.10
2018-11-02T09:14:53.094Z,11.30
2018-11-02T09:17:22.002Z,11.50
2018-11-02T09:19:50.622Z,11.60
2018-11-02T09:22:19.564Z,11.50
2018-11-02T09:24:48.258Z,11.40
2018-11-02T09:27:16.903Z,11.40
2018-11-02T09:29:45.398Z,11.50
2018-11-02T09:32:13.954Z,11.50
2018-11-02T09:34:42.562Z,11.50
2018-11-02T09:37:11.120Z,11.60
2018-11-02T09:39:39.831Z,11.60
2018-11-02T09:42:08.523Z,11.50
2018-11-02T09:44:37.824Z,11.50
2018-11-02T09:47:06.589Z,11.40
2018-11-02T09:49:35.210Z,11.40
2018-11-02T09:52:03.882Z,11.50
2018-11-02T09:54:32.484Z,11.30
2018-11-02T09:57:01.125Z,11.30
2018-11-02T09:59:29.737Z,11.40
2018-11-02T10:01:58.398Z,11.30
2018-11-02T10:04:27.064Z,11.40
2018-11-02T10:06:55.659Z,11.50
2018-11-02T10:09:24.277Z,11.70
2018-11-02T10:11:52.882Z,12.10
2018-11-02T10:14:21.626Z,12.30
2018-11-02T10:16:50.362Z,12.30
2018-11-02T10:19:18.998Z,12.30
2018-11-02T10:21:47.679Z,12.20
2018-11-02T10:24:16.254Z,12.00
2018-11-02T10:26:44.870Z,11.90
2018-11-02T10:29:13.797Z,11.80
2018-11-02T10:31:42.462Z,11.70
2018-11-02T10:34:11.184Z,11.70
2018-11-02T10:36:40.063Z,11.90
2018-11-02T10:39:11.860Z,12.40
2018-11-02T10:41:49.625Z,12.70
2018-11-02T10:44:24.592Z,12.80
2018-11-02T10:46:53.203Z,13.70
2018-11-02T10:49:21.948Z,13.40
2018-11-02T10:51:50.669Z,13.20
2018-11-02T10:54:19.332Z,13.20
2018-11-02T10:56:47.876Z,13.60
2018-11-02T10:59:16.497Z,14.30
2018-11-02T11:01:52.068Z,15.40
2018-11-02T11:04:20.946Z,14.90
2018-11-02T11:06:49.614Z,14.40
2018-11-02T11:09:18.238Z,14.00
2018-11-02T11:11:46.927Z,14.00
2018-11-02T11:14:15.469Z,13.90
2018-11-02T11:16:44.079Z,13.70
2018-11-02T11:19:12.969Z,13.40
2018-11-02T11:21:42.318Z,13.60
2018-11-02T11:24:11.050Z,13.90
2018-11-02T11:26:40.294Z,14.70
2018-11-02T11:29:09.128Z,15.30
2018-11-02T11:31:38.270Z,15.10
2018-11-02T11:34:07.971Z,14.70
2018-11-02T11:36:36.681Z,14.40
2018-11-02T11:39:10.314Z,14.40
2018-11-02T11:41:38.945Z,14.40
2018-11-02T11:44:07.852Z,14.10
2018-11-02T11:46:36.601Z,13.90
2018-11-02T11:49:06.468Z,14.20
2018-11-02T11:51:35.049Z,14.50
2018-11-02T11:54:03.742Z,14.60
2018-11-02T11:56:32.672Z,15.40
2018-11-02T11:59:01.551Z,16.80
2018-11-02T12:01:30.258Z,17.50
2018-11-02T12:03:58.929Z,18.10
2018-11-02T12:06:27.571Z,18.80
2018-11-02T12:08:56.473Z,18.80
2018-11-02T12:11:25.147Z,17.90
2018-11-02T12:13:53.785Z,17.10
2018-11-02T12:16:22.400Z,16.90
2018-11-02T12:18:51.001Z,16.90
2018-11-02T12:21:19.705Z,18.20
2018-11-02T12:23:48.310Z,20.40
2018-11-02T12:26:16.943Z,21.00
2018-11-02T12:28:45.663Z,22.50
2018-11-02T12:31:14.275Z,23.80
2018-11-02T12:33:43.296Z,24.20
2018-11-02T12:36:12.725Z,23.60
2018-11-02T12:38:41.349Z,22.70
2018-11-02T12:41:09.964Z,22.70
2018-11-02T12:43:38.783Z,23.10
2018-11-02T12:46:07.350Z,22.60
2018-11-02T12:48:36.066Z,21.70
2018-11-02T12:51:04.655Z,21.80
2018-11-02T12:53:33.319Z,20.90
2018-11-02T12:56:02.031Z,20.50
2018-11-02T12:58:30.616Z,19.40
2018-11-02T13:00:59.388Z,18.30
2018-11-02T13:03:28.194Z,18.70
2018-11-02T13:05:57.040Z,19.10
2018-11-02T13:08:25.740Z,19.20
2018-11-02T13:10:54.492Z,18.90
2018-11-02T13:13:23.303Z,18.20
2018-11-02T13:15:52.048Z,17.40
2018-11-02T13:18:21.001Z,17.00
2018-11-02T13:20:50.266Z,16.90
2018-11-02T13:23:18.905Z,16.30
2018-11-02T13:25:47.566Z,15.80
2018-11-02T13:28:16.406Z,15.50
2018-11-02T13:30:45.306Z,15.30
2018-11-02T13:33:14.082Z,15.20
2018-11-02T13:35:42.680Z,15.50
2018-11-02T13:38:11.468Z,15.90
2018-11-02T13:40:40.142Z,16.30
2018-11-02T13:43:09.203Z,16.90
2018-11-02T13:45:37.833Z,17.00
2018-11-02T13:48:06.443Z,16.80
2018-11-02T13:50:35.210Z,16.60
2018-11-02T13:53:03.769Z,16.20
2018-11-02T13:55:32.421Z,15.70
2018-11-02T13:58:01.109Z,15.20
2018-11-02T14:00:29.963Z,14.80
2018-11-02T14:02:58.623Z,14.40
2018-11-02T14:05:27.250Z,14.20
2018-11-02T14:07:55.898Z,14.30
2018-11-02T14:10:24.533Z,14.80
2018-11-02T14:12:53.245Z,15.60
2018-11-02T14:15:21.875Z,16.20
2018-11-02T14:17:51.085Z,16.30
2018-11-02T14:20:19.810Z,16.10
2018-11-02T14:22:48.443Z,15.70
2018-11-02T14:25:17.796Z,15.30
2018-11-02T14:27:46.580Z,14.70
2018-11-02T14:30:16.621Z,14.20
2018-11-02T14:32:46.813Z,13.80
2018-11-02T14:35:15.587Z,13.70
2018-11-02T14:37:44.377Z,13.70
2018-11-02T14:40:13.154Z,13.50
2018-11-02T14:42:42.837Z,13.40
2018-11-02T14:45:15.099Z,13.30
2018-11-02T14:47:44.841Z,13.10
2018-11-02T14:50:13.521Z,12.90
2018-11-02T14:52:42.176Z,12.80
2018-11-02T14:55:11.021Z,12.60
2018-11-02T14:57:40.018Z,12.50
2018-11-02T15:00:10.428Z,12.40
2018-11-02T15:02:39.575Z,12.30
2018-11-02T15:05:09.404Z,12.20
2018-11-02T15:07:40.371Z,12.10
2018-11-02T15:10:09.175Z,12.10
2018-11-02T15:12:38.511Z,12.00
2018-11-02T15:15:07.853Z,12.00
2018-11-02T15:17:36.529Z,11.90
2018-11-02T15:20:07.423Z,11.90
2018-11-02T15:22:36.194Z,11.80
2018-11-02T15:25:05.219Z,11.70
2018-11-02T15:27:33.902Z,11.60
2018-11-02T15:30:02.525Z,11.60
2018-11-02T15:32:31.138Z,11.50
2018-11-02T15:34:59.857Z,11.40
2018-11-02T15:37:28.615Z,11.20
2018-11-02T15:39:57.323Z,11.10
2018-11-02T15:42:26.040Z,11.10
2018-11-02T15:44:54.854Z,11.00
2018-11-02T15:47:23.584Z,10.90
2018-11-02T15:49:52.226Z,10.80
2018-11-02T15:52:21.062Z,10.80
2018-11-02T15:54:49.808Z,10.70
2018-11-02T15:57:18.535Z,10.70
2018-11-02T15:59:47.163Z,10.60
2018-11-02T16:02:16.126Z,10.50
2018-11-02T16:04:44.863Z,10.50
2018-11-02T16:07:13.457Z,10.40
2018-11-02T16:09:42.052Z,10.30
2018-11-02T16:12:10.713Z,10.30
2018-11-02T16:14:39.614Z,10.20
2018-11-02T16:17:09.057Z,10.10
2018-11-02T16:19:37.668Z,10.10
2018-11-02T16:22:06.081Z,10.10
2018-11-02T16:24:34.868Z,10.10
2018-11-02T16:27:04.369Z,10.10
2018-11-02T16:29:33.131Z,10.10
2018-11-02T16:32:01.830Z,10.10
2018-11-02T16:34:30.582Z,10.10
2018-11-02T16:36:59.290Z,10.00
2018-11-02T16:39:27.939Z,10.00
2018-11-02T16:41:56.681Z,9.90
2018-11-02T16:44:25.538Z,9.90
2018-11-02T16:46:54.180Z,9.90
2018-11-02T16:49:23.314Z,9.90
2018-11-02T16:51:52.054Z,9.80
2018-11-02T16:54:20.819Z,9.80
2018-11-02T16:56:49.546Z,9.80
2018-11-02T16:59:18.293Z,9.70
2018-11-02T17:01:47.018Z,9.70
2018-11-02T17:04:15.783Z,9.70
2018-11-02T17:06:44.457Z,9.70
2018-11-02T17:09:13.889Z,9.70
2018-11-02T17:11:42.678Z,9.60
2018-11-02T17:14:11.448Z,9.60
2018-11-02T17:16:40.158Z,9.60
2018-11-02T17:19:08.748Z,9.50
2018-11-02T17:21:37.462Z,9.50
2018-11-02T17:24:06.355Z,9.40
2018-11-02T17:26:34.970Z,9.40
2018-11-02T17:29:03.761Z,9.40
2018-11-02T17:31:32.460Z,9.30
2018-11-02T17:34:01.192Z,9.20
2018-11-02T17:36:34.187Z,9.30
2018-11-02T17:39:02.885Z,9.30
2018-11-02T17:41:31.533Z,9.20
2018-11-02T17:44:00.275Z,9.20
2018-11-02T17:46:29.044Z,9.20
2018-11-02T17:48:57.709Z,9.20
2018-11-02T17:51:26.802Z,9.20
2018-11-02T17:53:55.420Z,9.10
2018-11-02T17:56:28.217Z,9.10
2018-11-02T17:58:56.885Z,9.00
2018-11-02T18:01:25.594Z,9.00
2018-11-02T18:03:54.272Z,9.00
2018-11-02T18:06:22.890Z,8.90
2018-11-02T18:08:51.565Z,8.90
2018-11-02T18:11:20.238Z,8.90
2018-11-02T18:13:48.978Z,8.80
2018-11-02T18:16:17.533Z,8.80
2018-11-02T18:18:46.181Z,8.70
2018-11-02T18:21:14.810Z,8.70
2018-11-02T18:23:43.512Z,8.70
2018-11-02T18:26:12.118Z,8.60
2018-11-02T18:28:40.860Z,8.60
2018-11-02T18:31:09.567Z,8.50
2018-11-02T18:33:38.214Z,8.50
2018-11-02T18:36:06.927Z,8.50
2018-11-02T18:38:35.616Z,8.50
2018-11-02T18:41:04.942Z,8.40
2018-11-02T18:43:33.557Z,8.40
2018-11-02T18:46:02.267Z,8.30
2018-11-02T18:48:31.028Z,8.30
2018-11-02T18:50:59.667Z,8.30
2018-11-02T18:53:28.325Z,8.30
2018-11-02T18:55:57.019Z,8.30
2018-11-02T18:58:25.762Z,8.40
2018-11-02T19:00:54.521Z,8.40
2018-11-02T19:03:23.170Z,8.40
2018-11-02T19:05:52.042Z,8.30
2018-11-02T19:08:20.736Z,8.30
2018-11-02T19:10:49.453Z,8.20
2018-11-02T19:13:18.077Z,8.20
2018-11-02T19:15:46.789Z,8.20
2018-11-02T19:18:15.341Z,8.10
2018-11-02T19:20:44.392Z,8.10
2018-11-02T19:23:13.117Z,8.00
2018-11-02T19:25:42.930Z,8.00
2018-11-02T19:28:11.615Z,7.90
2018-11-02T19:30:40.285Z,7.90
2018-11-02T19:33:09.771Z,7.80
2018-11-02T19:35:38.779Z,7.80
2018-11-02T19:38:07.806Z,7.80
2018-11-02T19:40:36.392Z,7.70
2018-11-02T19:43:05.392Z,7.70
2018-11-02T19:45:34.116Z,7.70
2018-11-02T19:48:04.111Z,7.60
2018-11-02T19:50:32.868Z,7.60
2018-11-02T19:53:01.631Z,7.60
2018-11-02T19:55:30.496Z,7.60
2018-11-02T19:57:59.268Z,7.50
2018-11-02T20:00:28.526Z,7.50
2018-11-02T20:02:57.321Z,7.50
2018-11-02T20:05:26.104Z,7.50
2018-11-02T20:07:54.837Z,7.50
2018-11-02T20:10:23.689Z,7.50
2018-11-02T20:12:52.414Z,7.40
2018-11-02T20:15:21.230Z,7.40
2018-11-02T20:17:50.679Z,7.40
2018-11-02T20:20:19.278Z,7.30
2018-11-02T20:22:48.047Z,7.30
2018-11-02T20:25:17.627Z,7.30
2018-11-02T20:27:46.316Z,7.20
2018-11-02T20:30:16.910Z,7.20
2018-11-02T20:32:45.983Z,7.20
2018-11-02T20:35:15.131Z,7.20
2018-11-02T20:37:43.951Z,7.10
2018-11-02T20:40:15.081Z,7.10
2018-11-02T20:42:44.499Z,7.10
2018-11-02T20:45:14.058Z,7.00
2018-11-02T20:47:48.061Z,7.00
2018-11-02T20:50:16.821Z,7.00
2018-11-02T20:52:45.554Z,7.00
2018-11-02T20:55:14.860Z,6.90
2018-11-02T20:57:43.639Z,6.90
2018-11-02T21:00:15.136Z,6.90
2018-11-02T21:02:44.363Z,6.90
2018-11-02T21:05:14.301Z,6.80
2018-11-02T21:07:44.132Z,6.80
2018-11-02T21:10:14.084Z,6.80
2018-11-02T21:12:42.875Z,6.80
2018-11-02T21:15:14.947Z,6.80
2018-11-02T21:17:43.741Z,6.80
2018-11-02T21:20:14.892Z,6.70
2018-11-02T21:22:44.013Z,6.70
2018-11-02T21:25:13.462Z,6.70
2018-11-02T21:27:42.870Z,6.70
2018-11-02T21:30:14.361Z,6.70
2018-11-02T21:32:43.596Z,6.70
2018-11-02T21:35:12.506Z,6.70
2018-11-02T21:37:41.464Z,6.70
2018-11-02T21:40:13.461Z,6.70
2018-11-02T21:42:43.353Z,6.70
2018-11-02T21:45:13.463Z,6.70
2018-11-02T21:47:42.325Z,6.70
2018-11-02T21:50:11.760Z,6.60
2018-11-02T21:52:40.574Z,6.60
2018-11-02T21:55:09.434Z,6.60
2018-11-02T21:57:38.323Z,6.60
2018-11-02T22:00:09.086Z,6.60
2018-11-02T22:02:37.871Z,6.60
2018-11-02T22:05:07.340Z,6.50
2018-11-02T22:07:35.983Z,6.50
2018-11-02T22:10:06.047Z,6.50
2018-11-02T22:12:35.520Z,6.50
2018-11-02T22:15:04.644Z,6.50
2018-11-02T22:17:33.497Z,6.50
2018-11-02T22:20:02.366Z,6.50
2018-11-02T22:22:38.559Z,6.50
2018-11-02T22:25:18.201Z,6.50
2018-11-02T22:27:58.054Z,6.50
2018-11-02T22:30:27.443Z,6.50
2018-11-02T22:32:56.330Z,6.40
2018-11-02T22:35:25.872Z,6.40
2018-11-02T22:37:54.729Z,6.40
2018-11-02T22:40:23.600Z,6.40
2018-11-02T22:42:52.281Z,6.40
2018-11-02T22:45:20.898Z,6.30
2018-11-02T22:47:54.776Z,6.20
2018-11-02T22:50:23.475Z,6.10
2018-11-02T22:52:52.081Z,6.00
2018-11-02T22:55:20.685Z,5.90
2018-11-02T22:57:49.667Z,5.90
2018-11-02T23:00:19.176Z,5.80
2018-11-02T23:02:48.724Z,5.80
2018-11-02T23:05:17.658Z,5.70
2018-11-02T23:07:46.431Z,5.70
2018-11-02T23:10:15.291Z,5.70
2018-11-02T23:12:43.966Z,5.60
2018-11-02T23:15:13.097Z,5.60
2018-11-02T23:17:42.124Z,5.60
2018-11-02T23:20:13.356Z,5.50
2018-11-02T23:22:42.003Z,5.50
2018-11-02T23:25:11.693Z,5.50
2018-11-02T23:27:41.818Z,5.40
2018-11-02T23:30:11.292Z,5.40
2018-11-02T23:32:39.828Z,5.40
2018-11-02T23:35:09.193Z,5.40
2018-11-02T23:37:38.111Z,5.40
2018-11-02T23:40:07.650Z,5.40
2018-11-02T23:42:36.509Z,5.30
2018-11-02T23:45:06.175Z,5.30
2018-11-02T23:47:34.879Z,5.30
2018-11-02T23:50:04.153Z,5.30
2018-11-02T23:52:33.719Z,5.30
2018-11-02T23:55:02.560Z,5.30
2018-11-02T23:57:31.237Z,5.20
2018-11-02T23:59:59.940Z,5.20
